Time;durP1;ratioP1;P1;durP2;ratioP2;P2;SDS_P1;SDS_P2;PMS_P1;PMS_P2;Temp;Humidity;BMP_temperature;BMP_pressure;BME280_temperature;BME280_humidity;BME280_pressure;Samples;Min_cycle;Max_cycle;Signal;HPM_P1;HPM_P2
2022/01/15 00:01:43;;;;;;;16.33;9.53;;;2.40;99.90;;;;;;4990791;28;20549;-77
2022/01/15 00:04:09;;;;;;;20.37;9.10;;;2.40;99.90;;;;;;4961018;28;20674;-77
2022/01/15 00:06:36;;;;;;;17.17;8.03;;;2.40;99.90;;;;;;4967021;28;20701;-76
2022/01/15 00:09:02;;;;;;;19.17;9.13;;;2.50;99.90;;;;;;4964047;28;20311;-76
2022/01/15 00:11:28;;;;;;;17.37;8.57;;;2.40;99.90;;;;;;4971850;28;20461;-76
2022/01/15 00:13:58;;;;;;;21.37;9.07;;;2.40;99.90;;;;;;4969958;28;20989;-77
2022/01/15 00:16:44;;;;;;;16.93;6.90;;;2.40;99.90;;;;;;4968208;28;20621;-77
2022/01/15 00:19:11;;;;;;;15.43;7.70;;;2.40;99.90;;;;;;4970882;28;20462;-77
2022/01/15 00:21:37;;;;;;;14.43;8.33;;;2.40;99.90;;;;;;4969597;28;20476;-76
2022/01/15 00:24:02;;;;;;;16.40;7.00;;;2.40;99.90;;;;;;4969154;28;20533;-74
2022/01/15 00:26:29;;;;;;;14.80;7.10;;;2.40;99.90;;;;;;4970295;28;20725;-75
2022/01/15 00:28:54;;;;;;;14.87;7.37;;;2.40;99.90;;;;;;4971095;28;20606;-76
2022/01/15 00:31:20;;;;;;;16.00;7.57;;;2.40;99.90;;;;;;4954024;28;20454;-76
2022/01/15 00:33:46;;;;;;;16.60;8.50;;;2.40;99.90;;;;;;4970001;28;20682;-77
2022/01/15 00:36:12;;;;;;;19.03;8.40;;;2.40;99.90;;;;;;4977409;28;20222;-76
2022/01/15 00:38:37;;;;;;;17.27;6.63;;;2.30;99.90;;;;;;4970640;28;20256;-77
2022/01/15 00:41:03;;;;;;;17.90;7.80;;;2.30;99.90;;;;;;4969557;28;20342;-77
2022/01/15 00:43:28;;;;;;;17.13;6.50;;;2.30;99.90;;;;;;4985629;28;20215;-76
2022/01/15 00:45:57;;;;;;;13.10;7.00;;;2.30;99.90;;;;;;4977118;28;20225;-76
2022/01/15 00:48:27;;;;;;;23.60;8.13;;;2.30;99.90;;;;;;4986526;28;20245;-77
2022/01/15 00:50:53;;;;;;;18.27;7.13;;;2.30;99.90;;;;;;4983694;28;20474;-76
2022/01/15 00:53:18;;;;;;;13.83;5.87;;;2.30;99.90;;;;;;4969308;28;20477;-75
2022/01/15 00:55:45;;;;;;;11.87;5.93;;;2.30;99.90;;;;;;4970098;28;20490;-77
2022/01/15 00:58:12;;;;;;;12.43;6.17;;;2.30;99.90;;;;;;4970804;28;20446;-77
2022/01/15 01:00:38;;;;;;;10.80;5.93;;;2.30;99.90;;;;;;4979023;28;20466;-76
2022/01/15 01:03:05;;;;;;;9.70;5.53;;;2.30;99.90;;;;;;4977664;28;20471;-75
2022/01/15 01:05:31;;;;;;;14.97;7.60;;;2.20;99.90;;;;;;4971029;28;20833;-77
2022/01/15 01:07:57;;;;;;;10.57;5.73;;;2.20;99.90;;;;;;4977328;28;20462;-76
2022/01/15 01:13:26;;;;;;;9.60;4.83;;;2.20;99.90;;;;;;4970415;28;20466;-77
2022/01/15 01:20:04;;;;;;;15.33;6.30;;;2.20;99.90;;;;;;4970018;28;20469;-77
2022/01/15 01:24:13;;;;;;;14.53;7.30;;;2.30;99.90;;;;;;4970216;28;20473;-76
2022/01/15 01:32:44;;;;;;;9.50;5.20;;;2.20;99.90;;;;;;4933630;29;20837;-76
2022/01/15 01:35:16;;;;;;;14.37;5.67;;;2.20;99.90;;;;;;4992077;28;20544;-76
2022/01/15 01:37:48;;;;;;;12.57;6.13;;;2.20;99.90;;;;;;4970308;28;20473;-77
2022/01/15 01:40:24;;;;;;;10.50;4.97;;;2.20;99.90;;;;;;4976837;28;20533;-77
2022/01/15 01:45:34;;;;;;;13.77;5.33;;;2.10;99.90;;;;;;4970413;28;20855;-76
2022/01/15 01:48:00;;;;;;;15.97;7.40;;;2.10;99.90;;;;;;4974798;28;20474;-76
2022/01/15 01:50:28;;;;;;;15.10;7.13;;;2.20;99.90;;;;;;4972136;28;20450;-76
2022/01/15 01:52:57;;;;;;;13.17;6.50;;;2.20;99.90;;;;;;4981649;28;20301;-76
2022/01/15 01:55:26;;;;;;;16.53;6.50;;;2.20;99.90;;;;;;4992641;28;20599;-76
2022/01/15 01:57:54;;;;;;;12.43;6.33;;;2.20;99.90;;;;;;4990772;28;20457;-76
2022/01/15 02:00:22;;;;;;;9.70;5.07;;;2.20;99.90;;;;;;4964526;28;20464;-75
2022/01/15 02:02:49;;;;;;;12.67;5.87;;;2.10;99.90;;;;;;4972549;28;20470;-74
2022/01/15 02:05:15;;;;;;;10.93;4.80;;;2.20;99.90;;;;;;4972380;28;20450;-76
2022/01/15 02:07:43;;;;;;;14.53;5.73;;;2.20;99.90;;;;;;4987520;28;20461;-76
2022/01/15 02:10:12;;;;;;;12.00;6.67;;;2.20;99.90;;;;;;4980968;28;20453;-77
2022/01/15 02:12:39;;;;;;;13.60;6.10;;;2.20;99.90;;;;;;4972707;28;20458;-75
2022/01/15 02:15:10;;;;;;;10.70;6.30;;;2.20;99.90;;;;;;4980670;28;20466;-76
2022/01/15 02:17:36;;;;;;;8.67;5.33;;;2.20;99.90;;;;;;4972832;28;20495;-76
2022/01/15 02:21:01;;;;;;;14.70;6.17;;;2.20;99.90;;;;;;4973356;28;20466;-76
2022/01/15 02:25:56;;;;;;;15.97;6.00;;;2.20;99.90;;;;;;4973411;28;20454;-75
2022/01/15 02:28:27;;;;;;;12.03;5.00;;;2.20;99.90;;;;;;4988711;28;20474;-76
2022/01/15 02:30:58;;;;;;;12.97;5.93;;;2.20;99.90;;;;;;4972114;28;20549;-76
2022/01/15 02:33:24;;;;;;;8.57;4.93;;;2.20;99.90;;;;;;4977749;28;20543;-76
2022/01/15 02:35:51;;;;;;;14.73;7.30;;;2.30;99.90;;;;;;4975601;28;20446;-76
2022/01/15 02:38:17;;;;;;;14.40;6.17;;;2.30;99.90;;;;;;4958964;28;20252;-76
2022/01/15 02:40:44;;;;;;;11.60;6.10;;;2.30;99.90;;;;;;4986242;28;20513;-76
2022/01/15 02:43:14;;;;;;;13.33;6.37;;;2.30;99.90;;;;;;4968689;28;20482;-76
2022/01/15 02:45:44;;;;;;;8.10;4.33;;;2.20;99.90;;;;;;4979889;28;20519;-76
2022/01/15 02:48:10;;;;;;;10.43;5.13;;;2.20;99.90;;;;;;4985810;28;20483;-77
2022/01/15 02:50:35;;;;;;;13.50;6.63;;;2.30;99.90;;;;;;4989463;28;20461;-76
2022/01/15 02:53:02;;;;;;;12.90;5.63;;;2.30;99.90;;;;;;4990387;28;20359;-77
2022/01/15 02:55:28;;;;;;;12.00;5.60;;;2.20;99.90;;;;;;4990835;28;20256;-76
2022/01/15 02:57:54;;;;;;;10.63;5.63;;;2.20;99.90;;;;;;4973791;28;20493;-74
2022/01/15 03:00:21;;;;;;;13.20;5.60;;;2.20;99.90;;;;;;4980901;28;20229;-76
2022/01/15 03:02:46;;;;;;;10.93;5.13;;;2.20;99.90;;;;;;4964634;28;20226;-77
2022/01/15 03:05:12;;;;;;;8.40;4.50;;;2.20;99.90;;;;;;4970903;28;20897;-76
2022/01/15 03:07:38;;;;;;;10.17;5.83;;;2.20;99.90;;;;;;4971038;28;20226;-76
2022/01/15 03:10:04;;;;;;;10.33;5.00;;;2.20;99.90;;;;;;4971581;28;20218;-76
2022/01/15 03:12:30;;;;;;;9.30;5.10;;;2.20;99.90;;;;;;4975922;28;20225;-76
2022/01/15 03:15:01;;;;;;;19.33;7.27;;;2.20;99.90;;;;;;4972355;28;20462;-75
2022/01/15 03:17:26;;;;;;;8.63;4.53;;;2.20;99.90;;;;;;4972824;28;20237;-76
2022/01/15 03:19:52;;;;;;;10.30;5.20;;;2.20;99.90;;;;;;4971185;28;20462;-77
2022/01/15 03:22:18;;;;;;;15.73;4.40;;;2.20;99.90;;;;;;4971427;28;20230;-75
2022/01/15 03:24:43;;;;;;;11.80;5.80;;;2.20;99.90;;;;;;4971276;28;20293;-75
2022/01/15 03:27:09;;;;;;;16.83;6.10;;;2.20;99.90;;;;;;4969605;28;20240;-77
2022/01/15 03:29:35;;;;;;;13.67;5.67;;;2.20;99.90;;;;;;4973616;28;20265;-77
2022/01/15 03:32:01;;;;;;;13.50;5.77;;;2.20;99.90;;;;;;4972692;28;20237;-75
2022/01/15 03:34:27;;;;;;;10.87;5.13;;;2.20;99.90;;;;;;4968941;28;20741;-76
2022/01/15 03:36:53;;;;;;;13.83;6.30;;;2.30;99.90;;;;;;4981824;28;20494;-76
2022/01/15 03:39:21;;;;;;;12.43;5.43;;;2.30;99.90;;;;;;4973313;28;20265;-75
2022/01/15 03:41:46;;;;;;;12.60;4.87;;;2.30;99.90;;;;;;4969787;28;20274;-76
2022/01/15 03:44:12;;;;;;;8.53;4.27;;;2.30;99.90;;;;;;4976167;28;20989;-76
2022/01/15 03:46:38;;;;;;;12.50;5.90;;;2.30;99.90;;;;;;4988586;28;20224;-77
2022/01/15 03:49:03;;;;;;;11.30;5.17;;;2.30;99.90;;;;;;4969569;28;20365;-76
2022/01/15 03:51:29;;;;;;;12.33;5.43;;;2.30;99.90;;;;;;4973752;28;20698;-77
2022/01/15 03:53:55;;;;;;;14.37;6.00;;;2.30;99.90;;;;;;4974533;28;20266;-76
2022/01/15 03:56:20;;;;;;;15.07;6.50;;;2.30;99.90;;;;;;4973051;28;20321;-76
2022/01/15 03:58:46;;;;;;;16.77;5.67;;;2.30;99.90;;;;;;4975894;28;20230;-76
2022/01/15 04:01:12;;;;;;;10.83;5.90;;;2.40;99.90;;;;;;4957530;28;20219;-76
2022/01/15 04:03:38;;;;;;;15.13;5.97;;;2.40;99.90;;;;;;4953923;28;20301;-76
2022/01/15 04:06:04;;;;;;;12.03;5.47;;;2.40;99.90;;;;;;4991792;28;20223;-78
2022/01/15 04:08:29;;;;;;;12.60;6.07;;;2.40;99.90;;;;;;4972178;28;20532;-76
2022/01/15 04:10:55;;;;;;;9.37;5.77;;;2.40;99.90;;;;;;4966656;28;20222;-76
2022/01/15 04:13:21;;;;;;;11.90;6.03;;;2.40;99.90;;;;;;4973174;28;20210;-78
2022/01/15 04:15:52;;;;;;;7.13;4.50;;;2.40;99.90;;;;;;4988610;28;20467;-76
2022/01/15 04:18:21;;;;;;;13.67;5.27;;;2.40;99.90;;;;;;4965214;28;20717;-75
2022/01/15 04:20:46;;;;;;;13.13;6.50;;;2.40;99.90;;;;;;4971103;28;20457;-76
2022/01/15 04:23:12;;;;;;;15.07;6.60;;;2.40;99.90;;;;;;4976084;28;20825;-77
2022/01/15 04:25:38;;;;;;;15.70;6.23;;;2.40;99.90;;;;;;4981966;28;20250;-76
2022/01/15 04:28:08;;;;;;;14.00;5.63;;;2.40;99.90;;;;;;4972081;28;20221;-77
2022/01/15 04:30:35;;;;;;;15.07;7.33;;;2.40;99.90;;;;;;5000783;28;20218;-76
2022/01/15 04:33:01;;;;;;;12.20;5.50;;;2.40;99.90;;;;;;4973734;28;20520;-76
2022/01/15 04:35:26;;;;;;;16.90;6.50;;;2.40;99.90;;;;;;4971670;28;20465;-76
2022/01/15 04:38:00;;;;;;;15.73;6.50;;;2.40;99.90;;;;;;4953593;28;20236;-76
2022/01/15 04:40:25;;;;;;;12.47;5.53;;;2.40;99.90;;;;;;4970400;28;20218;-77
2022/01/15 04:42:51;;;;;;;11.80;5.40;;;2.40;99.90;;;;;;4974672;28;20496;-75
2022/01/15 04:45:17;;;;;;;15.80;5.83;;;2.50;99.90;;;;;;4967928;28;20250;-77
2022/01/15 04:47:42;;;;;;;14.40;6.53;;;2.50;99.90;;;;;;4971537;28;20317;-76
2022/01/15 04:50:12;;;;;;;10.87;5.60;;;2.50;99.90;;;;;;4950284;28;20222;-76
2022/01/15 04:52:38;;;;;;;10.50;5.13;;;2.50;99.90;;;;;;4970298;28;20249;-76
2022/01/15 04:55:05;;;;;;;13.13;6.27;;;2.50;99.90;;;;;;4974467;28;20520;-76
2022/01/15 04:57:31;;;;;;;14.50;5.90;;;2.50;99.90;;;;;;4968220;28;20498;-78
2022/01/15 04:59:57;;;;;;;12.33;5.80;;;2.50;99.90;;;;;;4950182;28;20500;-74
2022/01/15 05:02:22;;;;;;;9.90;5.03;;;2.50;99.90;;;;;;4977388;28;20230;-75
2022/01/15 05:04:48;;;;;;;8.90;5.30;;;2.50;99.90;;;;;;4950960;28;20214;-76
2022/01/15 05:07:14;;;;;;;14.80;7.10;;;2.50;99.90;;;;;;4973185;28;20248;-76
2022/01/15 05:09:40;;;;;;;10.47;5.50;;;2.50;99.90;;;;;;4968407;28;20227;-75
2022/01/15 05:12:12;;;;;;;14.83;6.13;;;2.50;99.90;;;;;;4952004;28;20226;-76
2022/01/15 05:14:38;;;;;;;11.83;5.30;;;2.50;99.90;;;;;;4971720;28;20219;-75
2022/01/15 05:17:03;;;;;;;14.20;5.77;;;2.50;99.90;;;;;;4974418;28;20508;-77
2022/01/15 05:19:29;;;;;;;18.33;6.20;;;2.50;99.90;;;;;;4967066;28;20211;-77
2022/01/15 05:21:56;;;;;;;13.20;5.60;;;2.50;99.90;;;;;;4972375;28;20237;-77
2022/01/15 05:24:26;;;;;;;10.70;4.80;;;2.50;99.90;;;;;;4967528;28;20214;-74
2022/01/15 05:26:53;;;;;;;9.17;6.00;;;2.50;99.90;;;;;;4983123;28;20458;-76
2022/01/15 05:29:18;;;;;;;13.83;5.47;;;2.60;99.90;;;;;;4973021;28;20462;-75
2022/01/15 05:31:44;;;;;;;11.33;6.00;;;2.60;99.90;;;;;;4985996;28;20461;-75
2022/01/15 05:34:10;;;;;;;11.20;5.50;;;2.60;99.90;;;;;;4996514;28;20223;-76
2022/01/15 05:36:39;;;;;;;11.67;5.53;;;2.60;99.90;;;;;;4992111;28;20221;-76
2022/01/15 05:39:05;;;;;;;14.60;5.80;;;2.60;99.90;;;;;;4989283;28;20463;-75
2022/01/15 05:41:31;;;;;;;16.57;5.90;;;2.50;99.90;;;;;;4992929;28;20615;-76
2022/01/15 05:44:01;;;;;;;10.23;5.13;;;2.50;99.90;;;;;;4992288;28;20550;-76
2022/01/15 05:46:31;;;;;;;14.27;6.83;;;2.50;99.90;;;;;;4995847;28;20222;-77
2022/01/15 05:48:57;;;;;;;12.73;6.00;;;2.50;99.90;;;;;;4975764;28;20516;-75
2022/01/15 05:51:23;;;;;;;9.70;5.07;;;2.50;99.90;;;;;;4990552;28;20516;-75
2022/01/15 05:53:49;;;;;;;14.93;6.23;;;2.50;99.90;;;;;;4991153;28;20510;-75
2022/01/15 05:56:15;;;;;;;9.53;4.53;;;2.50;99.90;;;;;;4989401;28;20543;-77
2022/01/15 05:58:41;;;;;;;12.83;6.43;;;2.60;99.90;;;;;;4976585;28;20225;-76
2022/01/15 06:01:07;;;;;;;14.47;6.00;;;2.50;99.90;;;;;;4989272;28;20302;-76
2022/01/15 06:03:32;;;;;;;9.90;5.80;;;2.50;99.90;;;;;;4993561;28;20229;-77
2022/01/15 06:06:02;;;;;;;13.30;5.70;;;2.50;99.90;;;;;;4991472;28;20464;-76
2022/01/15 06:08:27;;;;;;;14.97;6.77;;;2.60;99.90;;;;;;4990601;28;20222;-76
2022/01/15 06:10:53;;;;;;;15.97;5.73;;;2.60;99.90;;;;;;4994589;28;21039;-76
2022/01/15 06:13:19;;;;;;;8.40;4.70;;;2.60;99.90;;;;;;4990821;28;20220;-76
2022/01/15 06:15:44;;;;;;;13.43;6.17;;;2.60;99.90;;;;;;4973075;28;20245;-76
2022/01/15 06:18:10;;;;;;;11.00;5.17;;;2.60;99.90;;;;;;4980854;28;20276;-76
2022/01/15 06:20:36;;;;;;;14.83;5.00;;;2.60;99.90;;;;;;4994696;28;20729;-76
2022/01/15 06:23:01;;;;;;;12.00;5.97;;;2.60;99.90;;;;;;4976751;28;20225;-75
2022/01/15 06:25:27;;;;;;;13.83;7.30;;;2.60;99.90;;;;;;4991192;28;20249;-75
2022/01/15 06:27:53;;;;;;;12.73;6.13;;;2.60;99.90;;;;;;4992477;28;20245;-77
2022/01/15 06:30:18;;;;;;;10.17;5.20;;;2.60;99.90;;;;;;4995181;28;20296;-76
2022/01/15 06:32:44;;;;;;;14.60;5.60;;;2.60;99.90;;;;;;4993314;28;20217;-75
2022/01/15 06:35:12;;;;;;;14.20;5.13;;;2.60;99.90;;;;;;4989898;28;20268;-74
2022/01/15 06:37:39;;;;;;;12.90;5.77;;;2.60;99.90;;;;;;4974369;28;20309;-77
2022/01/15 06:40:06;;;;;;;14.80;5.70;;;2.60;99.90;;;;;;4975876;28;20453;-76
2022/01/15 06:42:32;;;;;;;12.83;5.90;;;2.60;99.90;;;;;;4989656;28;21066;-78
2022/01/15 06:44:58;;;;;;;11.17;6.17;;;2.60;99.90;;;;;;4977277;28;20491;-77
2022/01/15 06:47:25;;;;;;;17.17;7.90;;;2.60;99.90;;;;;;4995706;28;20472;-76
2022/01/15 06:49:50;;;;;;;39.93;19.37;;;2.60;99.90;;;;;;4974229;28;20217;-76
2022/01/15 06:52:16;;;;;;;148.00;55.80;;;2.60;99.90;;;;;;4991736;28;20463;-76
2022/01/15 06:54:42;;;;;;;117.20;53.87;;;2.60;99.90;;;;;;4997979;28;20648;-76
2022/01/15 06:57:07;;;;;;;98.60;47.60;;;2.60;99.90;;;;;;4971677;28;20222;-76
2022/01/15 06:59:33;;;;;;;86.07;42.23;;;2.60;99.90;;;;;;4988455;28;20222;-76
2022/01/15 07:01:59;;;;;;;38.83;21.97;;;2.60;99.90;;;;;;4989444;28;20218;-76
2022/01/15 07:04:25;;;;;;;22.10;13.17;;;2.60;99.90;;;;;;4988154;28;20222;-76
2022/01/15 07:06:50;;;;;;;22.67;13.30;;;2.60;99.90;;;;;;4974697;28;20297;-76
2022/01/15 07:09:16;;;;;;;23.77;12.80;;;2.60;99.90;;;;;;5011724;28;20213;-76
2022/01/15 07:11:42;;;;;;;15.53;9.90;;;2.60;99.90;;;;;;4994601;28;20220;-77
2022/01/15 07:14:07;;;;;;;17.30;9.23;;;2.60;99.90;;;;;;4993703;28;20279;-73
2022/01/15 07:16:34;;;;;;;14.13;7.90;;;2.60;99.90;;;;;;4997605;28;20297;-77
2022/01/15 07:19:01;;;;;;;12.77;6.50;;;2.60;99.90;;;;;;4987827;28;20325;-74
2022/01/15 07:21:26;;;;;;;14.23;6.43;;;2.60;99.90;;;;;;4989005;28;20532;-77
2022/01/15 07:23:52;;;;;;;9.93;6.13;;;2.60;99.90;;;;;;4994086;28;21098;-75
2022/01/15 07:26:18;;;;;;;8.30;4.80;;;2.60;99.90;;;;;;4992260;28;20590;-75
2022/01/15 07:28:43;;;;;;;7.80;4.77;;;2.60;99.90;;;;;;4973456;28;20222;-75
2022/01/15 07:31:09;;;;;;;6.10;4.50;;;2.60;99.90;;;;;;4987731;28;20238;-76
2022/01/15 07:33:35;;;;;;;11.60;4.83;;;2.60;99.90;;;;;;4995034;28;20677;-76
2022/01/15 07:36:00;;;;;;;7.50;5.00;;;2.60;99.90;;;;;;4988533;28;20232;-77
2022/01/15 07:38:26;;;;;;;10.10;6.17;;;2.60;99.90;;;;;;4993563;28;20233;-75
2022/01/15 07:40:57;;;;;;;7.70;4.73;;;2.60;99.90;;;;;;4998068;28;20248;-76
2022/01/15 07:43:24;;;;;;;12.57;6.37;;;2.60;99.90;;;;;;4995126;28;20240;-74
2022/01/15 07:45:50;;;;;;;28.43;14.73;;;2.60;99.90;;;;;;4991480;28;20551;-77
2022/01/15 07:48:15;;;;;;;29.80;15.73;;;2.60;99.90;;;;;;4989741;28;20548;-77
2022/01/15 07:50:41;;;;;;;20.63;12.50;;;2.60;99.90;;;;;;4992559;28;20469;-78
2022/01/15 07:53:06;;;;;;;24.97;15.17;;;2.70;99.90;;;;;;4990242;28;20217;-74
2022/01/15 07:55:32;;;;;;;34.23;15.57;;;2.70;99.90;;;;;;4987801;28;20720;-75
2022/01/15 07:57:58;;;;;;;25.80;13.47;;;2.70;99.90;;;;;;4988390;28;20701;-75
2022/01/15 08:00:24;;;;;;;18.80;11.30;;;2.70;99.90;;;;;;4984895;28;20222;-75
2022/01/15 08:02:49;;;;;;;11.30;7.63;;;2.70;99.90;;;;;;4992483;28;20222;-76
2022/01/15 08:05:15;;;;;;;8.77;4.20;;;2.60;99.90;;;;;;4992389;28;20260;-75
2022/01/15 08:07:42;;;;;;;9.53;6.30;;;2.60;99.90;;;;;;4987245;28;20225;-76
2022/01/15 08:10:08;;;;;;;9.07;5.77;;;2.70;99.90;;;;;;4990904;28;20303;-75
2022/01/15 08:12:42;;;;;;;7.93;4.70;;;2.70;99.90;;;;;;4985745;28;20469;-76
2022/01/15 08:15:08;;;;;;;10.03;5.90;;;2.70;99.90;;;;;;4991063;28;20543;-75
2022/01/15 08:17:33;;;;;;;11.30;5.03;;;2.70;99.90;;;;;;4986195;28;20461;-76
2022/01/15 08:19:59;;;;;;;12.37;6.43;;;2.70;99.90;;;;;;4988461;28;20460;-76
2022/01/15 08:22:25;;;;;;;8.53;5.27;;;2.70;99.90;;;;;;4987764;28;20229;-76
2022/01/15 08:24:50;;;;;;;8.43;5.60;;;2.60;99.90;;;;;;5004014;28;20229;-75
2022/01/15 08:27:17;;;;;;;12.33;7.33;;;2.70;99.90;;;;;;4989291;28;20357;-76
2022/01/15 08:29:42;;;;;;;11.33;6.00;;;2.70;99.90;;;;;;4974523;28;20226;-76
2022/01/15 08:32:08;;;;;;;9.33;5.67;;;2.70;99.90;;;;;;4989046;28;20461;-74
2022/01/15 08:34:34;;;;;;;8.90;4.93;;;2.70;99.90;;;;;;4991580;28;20204;-75
2022/01/15 08:36:59;;;;;;;8.60;5.97;;;2.70;99.90;;;;;;4985324;28;20682;-76
2022/01/15 08:39:25;;;;;;;8.03;5.70;;;2.70;99.90;;;;;;4987621;28;20214;-75
2022/01/15 08:41:51;;;;;;;6.80;4.40;;;2.70;99.90;;;;;;4989435;28;20226;-76
2022/01/15 08:44:23;;;;;;;5.87;4.53;;;2.70;99.90;;;;;;4988939;28;20736;-77
2022/01/15 08:46:50;;;;;;;9.13;5.40;;;2.70;99.90;;;;;;4978330;28;20225;-76
2022/01/15 08:49:16;;;;;;;7.97;5.30;;;2.70;99.90;;;;;;4986415;28;20441;-76
2022/01/15 08:51:45;;;;;;;8.10;4.67;;;2.70;99.90;;;;;;4989535;28;20877;-76
2022/01/15 08:54:10;;;;;;;8.17;5.17;;;2.70;99.90;;;;;;4972237;28;20230;-76
2022/01/15 08:56:36;;;;;;;9.90;5.40;;;2.70;99.90;;;;;;4987743;28;20480;-76
2022/01/15 08:59:03;;;;;;;13.77;7.67;;;2.70;99.90;;;;;;4988388;28;20225;-76
2022/01/15 09:01:29;;;;;;;13.50;8.30;;;2.70;99.90;;;;;;4970653;28;20465;-76
2022/01/15 09:03:58;;;;;;;18.43;13.07;;;2.70;99.90;;;;;;4970661;28;20457;-77
2022/01/15 09:06:25;;;;;;;29.17;24.03;;;2.70;99.90;;;;;;4989117;28;20519;-76
2022/01/15 09:08:54;;;;;;;24.53;16.50;;;2.70;99.90;;;;;;4988508;28;20480;-78
2022/01/15 09:11:19;;;;;;;14.80;13.17;;;2.70;99.90;;;;;;4974740;28;20464;-77
2022/01/15 09:13:45;;;;;;;14.83;11.83;;;2.70;99.90;;;;;;4969588;28;20536;-76
2022/01/15 09:16:11;;;;;;;11.97;7.37;;;2.70;99.90;;;;;;4969727;28;20211;-78
2022/01/15 09:18:37;;;;;;;15.37;6.90;;;2.70;99.90;;;;;;4983528;28;20289;-78
2022/01/15 09:21:03;;;;;;;11.77;8.87;;;2.70;99.90;;;;;;4978552;28;20540;-77
2022/01/15 09:23:30;;;;;;;11.00;7.93;;;2.70;99.90;;;;;;4988390;28;20548;-77
2022/01/15 09:25:57;;;;;;;12.77;8.03;;;2.70;99.90;;;;;;4989966;28;20453;-77
2022/01/15 09:31:08;;;;;;;16.57;8.80;;;2.70;99.90;;;;;;4989177;28;20524;-75
2022/01/15 09:33:33;;;;;;;14.10;7.53;;;2.70;99.90;;;;;;4972999;28;20461;-76
2022/01/15 09:36:02;;;;;;;13.50;8.03;;;2.80;99.90;;;;;;4970276;28;20219;-75
2022/01/15 09:38:28;;;;;;;16.83;9.20;;;2.80;99.90;;;;;;4952758;28;20281;-76
2022/01/15 09:40:55;;;;;;;23.10;12.50;;;2.80;99.90;;;;;;4961349;28;20465;-78
2022/01/15 09:43:21;;;;;;;20.70;11.97;;;2.80;99.90;;;;;;4978282;28;20246;-77
2022/01/15 09:45:47;;;;;;;25.57;11.80;;;2.80;99.90;;;;;;4968057;28;20450;-77
2022/01/15 09:48:15;;;;;;;20.53;11.87;;;2.80;99.90;;;;;;4971118;28;20458;-77
2022/01/15 09:50:43;;;;;;;12.77;8.63;;;2.80;99.90;;;;;;4979949;28;20468;-76
2022/01/15 09:53:10;;;;;;;9.80;6.53;;;2.80;99.90;;;;;;4984757;28;20846;-74
2022/01/15 09:55:37;;;;;;;12.00;7.73;;;2.80;99.90;;;;;;4970097;28;20476;-75
2022/01/15 09:58:03;;;;;;;20.27;13.80;;;2.80;99.90;;;;;;4970238;28;20481;-77
2022/01/15 10:00:30;;;;;;;21.33;15.10;;;2.80;99.90;;;;;;4968540;28;20497;-78
2022/01/15 10:02:56;;;;;;;25.00;16.80;;;2.80;99.90;;;;;;4949340;28;20467;-77
2022/01/15 10:05:22;;;;;;;22.57;15.53;;;2.80;99.90;;;;;;4969431;28;20468;-75
2022/01/15 10:07:59;;;;;;;18.60;14.87;;;2.80;99.90;;;;;;4969024;28;20465;-75
2022/01/15 10:10:28;;;;;;;20.50;13.60;;;2.80;99.90;;;;;;4969832;28;20466;-76
2022/01/15 10:12:54;;;;;;;14.70;8.77;;;2.80;99.90;;;;;;4972763;28;20477;-76
2022/01/15 10:15:21;;;;;;;12.70;7.60;;;2.80;99.90;;;;;;4987971;28;20523;-76
2022/01/15 10:17:47;;;;;;;17.03;9.30;;;2.80;99.90;;;;;;4956130;28;20466;-77
2022/01/15 10:20:18;;;;;;;13.60;9.70;;;2.80;99.90;;;;;;4974588;28;20821;-77
2022/01/15 10:22:48;;;;;;;18.20;12.33;;;2.80;99.90;;;;;;4977914;28;20470;-76
2022/01/15 10:25:21;;;;;;;21.40;12.70;;;2.90;99.90;;;;;;4958251;28;20465;-77
2022/01/15 10:27:51;;;;;;;14.90;9.80;;;2.90;99.90;;;;;;4960685;28;20477;-77
2022/01/15 10:30:18;;;;;;;14.23;8.40;;;2.80;99.90;;;;;;4978208;28;20469;-77
2022/01/15 10:33:00;;;;;;;10.57;6.40;;;2.90;99.90;;;;;;4961239;28;20462;-75
2022/01/15 10:35:31;;;;;;;7.50;4.97;;;2.90;99.90;;;;;;4998450;28;20608;-74
2022/01/15 10:38:02;;;;;;;9.83;5.80;;;2.90;99.90;;;;;;4966964;28;20465;-76
2022/01/15 10:40:41;;;;;;;12.00;8.13;;;2.90;99.90;;;;;;4970553;28;20453;-77
2022/01/15 10:43:07;;;;;;;12.93;8.63;;;2.90;99.90;;;;;;4970565;28;20485;-75
2022/01/15 10:45:35;;;;;;;16.00;8.60;;;2.90;99.90;;;;;;4973306;28;20450;-77
2022/01/15 10:48:04;;;;;;;13.10;8.10;;;3.00;99.90;;;;;;4977631;28;20974;-76
2022/01/15 10:50:35;;;;;;;16.13;8.50;;;3.00;99.90;;;;;;4972061;28;20466;-76
2022/01/15 10:53:10;;;;;;;10.43;6.10;;;3.00;99.90;;;;;;4969917;28;20532;-76
2022/01/15 10:55:38;;;;;;;15.97;9.77;;;2.90;99.90;;;;;;4971409;28;20520;-78
2022/01/15 10:58:11;;;;;;;20.63;10.27;;;2.90;99.90;;;;;;4971751;28;20466;-77
2022/01/15 11:00:37;;;;;;;18.87;10.50;;;3.00;99.90;;;;;;4972697;28;20477;-76
2022/01/15 11:03:05;;;;;;;20.37;10.80;;;3.00;99.90;;;;;;4971065;28;20470;-77
2022/01/15 11:05:35;;;;;;;15.40;8.50;;;3.00;99.90;;;;;;4975700;28;20214;-75
2022/01/15 11:08:14;;;;;;;15.60;8.70;;;3.00;99.90;;;;;;4981514;28;20453;-76
2022/01/15 11:10:44;;;;;;;10.90;5.80;;;3.00;99.90;;;;;;4977008;28;20472;-77
2022/01/15 11:13:15;;;;;;;11.40;6.87;;;3.00;99.90;;;;;;4972667;28;20917;-76
2022/01/15 11:15:46;;;;;;;25.40;14.17;;;3.00;99.90;;;;;;4971017;28;20486;-76
2022/01/15 11:18:29;;;;;;;27.10;17.53;;;3.00;99.90;;;;;;4972264;28;20470;-76
2022/01/15 11:20:58;;;;;;;19.10;12.97;;;3.00;99.90;;;;;;4954459;28;20539;-77
2022/01/15 11:23:27;;;;;;;13.13;9.53;;;3.00;99.90;;;;;;4971951;28;20480;-77
2022/01/15 11:25:55;;;;;;;15.50;8.13;;;3.00;99.90;;;;;;4971671;28;20457;-77
2022/01/15 11:28:26;;;;;;;12.17;7.60;;;3.00;99.90;;;;;;4978336;28;20461;-76
2022/01/15 11:30:55;;;;;;;12.90;7.30;;;3.00;99.90;;;;;;4979836;28;20462;-76
2022/01/15 11:33:23;;;;;;;9.10;5.70;;;3.00;99.90;;;;;;4970058;28;20469;-76
2022/01/15 11:35:50;;;;;;;9.50;5.87;;;3.00;99.90;;;;;;4995361;28;20461;-75
2022/01/15 11:38:36;;;;;;;9.50;5.80;;;3.00;99.90;;;;;;4977284;28;20990;-77
2022/01/15 11:41:02;;;;;;;9.60;5.07;;;3.00;99.90;;;;;;4965105;28;20482;-75
2022/01/15 11:43:30;;;;;;;11.17;6.47;;;3.10;99.90;;;;;;4983836;28;20466;-77
2022/01/15 11:46:03;;;;;;;6.33;4.23;;;3.10;99.90;;;;;;4969485;28;20591;-75
2022/01/15 11:48:33;;;;;;;8.20;4.77;;;3.10;99.90;;;;;;4952869;28;20468;-77
2022/01/15 11:51:14;;;;;;;8.17;4.90;;;3.10;99.90;;;;;;4952757;28;20540;-77
2022/01/15 11:53:51;;;;;;;7.50;6.70;;;3.10;99.90;;;;;;4970178;28;20493;-77
2022/01/15 11:56:19;;;;;;;10.23;6.83;;;3.10;99.90;;;;;;4969887;28;20485;-77
2022/01/15 11:58:45;;;;;;;7.53;5.67;;;3.10;99.90;;;;;;4977196;28;21008;-74
2022/01/15 12:01:39;;;;;;;8.23;5.40;;;3.20;99.90;;;;;;4973639;28;20506;-77
2022/01/15 12:04:39;;;;;;;9.33;5.80;;;3.20;99.90;;;;;;4990365;28;20457;-76
2022/01/15 12:07:05;;;;;;;9.37;5.40;;;3.20;99.90;;;;;;5001900;28;21000;-76
2022/01/15 12:09:38;;;;;;;11.07;6.43;;;3.20;99.90;;;;;;4975432;28;20548;-77
2022/01/15 12:12:33;;;;;;;9.63;6.00;;;3.20;99.90;;;;;;4955852;28;20307;-74
2022/01/15 12:15:02;;;;;;;11.70;6.07;;;3.20;99.90;;;;;;4966096;28;20453;-77
2022/01/15 12:17:30;;;;;;;10.77;6.60;;;3.20;99.90;;;;;;4967926;28;20623;-76
2022/01/15 12:19:58;;;;;;;9.60;5.50;;;3.20;99.90;;;;;;4971022;28;20489;-78
2022/01/15 12:22:48;;;;;;;16.10;7.73;;;3.20;99.90;;;;;;4952706;28;20477;-76
2022/01/15 12:25:16;;;;;;;9.73;5.80;;;3.20;99.90;;;;;;4978276;28;20466;-75
2022/01/15 12:27:58;;;;;;;8.33;5.00;;;3.30;99.90;;;;;;4968430;28;20477;-77
2022/01/15 12:30:27;;;;;;;15.57;7.17;;;3.20;99.90;;;;;;4966187;28;20821;-76
2022/01/15 12:33:00;;;;;;;10.77;7.23;;;3.30;99.90;;;;;;4968415;28;20457;-75
2022/01/15 12:35:37;;;;;;;10.43;7.17;;;3.30;99.90;;;;;;4981653;28;20536;-77
2022/01/15 12:38:10;;;;;;;12.23;6.73;;;3.30;99.90;;;;;;4981465;28;20460;-77
2022/01/15 12:41:02;;;;;;;13.63;6.60;;;3.30;99.90;;;;;;4977899;28;20771;-77
2022/01/15 12:43:39;;;;;;;14.97;6.80;;;3.30;99.90;;;;;;4977758;28;20468;-76
2022/01/15 12:46:17;;;;;;;12.57;7.10;;;3.40;99.90;;;;;;4969520;28;20481;-77
2022/01/15 12:48:44;;;;;;;14.43;8.73;;;3.40;99.90;;;;;;4985754;28;20465;-77
2022/01/15 12:51:20;;;;;;;12.23;7.30;;;3.40;99.90;;;;;;4967007;28;20465;-76
2022/01/15 12:53:49;;;;;;;12.57;9.30;;;3.40;99.90;;;;;;4969380;28;20458;-77
2022/01/15 12:56:18;;;;;;;19.97;11.57;;;3.40;99.90;;;;;;4969099;28;20459;-76
2022/01/15 12:58:45;;;;;;;16.70;11.00;;;3.40;99.90;;;;;;4969679;28;20462;-74
2022/01/15 13:01:12;;;;;;;16.97;12.10;;;3.40;99.90;;;;;;4969833;28;20536;-76
2022/01/15 13:03:40;;;;;;;16.23;10.37;;;3.40;99.90;;;;;;4969299;28;20474;-77
2022/01/15 13:06:07;;;;;;;16.60;10.70;;;3.40;99.90;;;;;;4960725;28;20454;-76
2022/01/15 13:08:44;;;;;;;15.30;10.40;;;3.40;99.90;;;;;;4973758;28;20972;-76
2022/01/15 13:13:39;;;;;;;16.00;10.70;;;3.40;99.90;;;;;;4990114;28;20449;-74
2022/01/15 13:16:18;;;;;;;11.77;9.20;;;3.40;99.90;;;;;;5004594;28;20464;-75
2022/01/15 13:18:55;;;;;;;15.90;9.67;;;3.40;99.90;;;;;;4985551;28;20485;-73